OBSERVATIONS  0 - 24  HOURS

00-24 HOURS 24-48 HOURS 48-72 HOURS 72-96 HOURS 96-120 HOURS Navigation Menu

Date/Time
EST
temperature
°C
Dew Point
°C
Humidity
%
Wind Speed
km/h
Wind Gust
km/h
Wind
Direction
Barometer
mb
Rain Today
mm
21/10:19pm 10.4 4.5 67 0 0 1007.2 108.0
21/09:49pm 10.5 4.8 68 0 0 1008.1 108.0
21/09:19pm 10.6 4.5 66 0 0 1008.3 108.0
21/08:49pm 10.7 4.2 64 0 0 1008.4 108.0
21/08:19pm 10.7 3.9 63 0 0 1008.4 108.0
21/07:49pm 10.7 4.2 64 0 0 1008.7 108.0
21/07:19pm 10.7 3.9 63 0 0 1008.7 108.0
21/06:49pm 10.6 4.1 64 0 0 1009.1 108.0
21/06:19pm 10.8 4.0 63 0 0 1009.5 108.0
21/05:49pm 10.7 3.9 63 0 0 1009.5 108.0
21/05:19pm 10.7 4.2 64 0 0 1010.0 108.0
21/04:49pm 10.9 4.1 63 0 0 1010.7 108.0
21/04:19pm 10.9 4.1 63 0 0 1010.3 108.0
21/03:49pm 11.2 4.2 62 0 0 1010.9 108.0
21/03:19pm 11.3 4.5 63 0 0 1011.2 108.0
21/02:49pm 11.2 4.4 63 0 0 1011.4 108.0
21/02:19pm 11.5 4.5 62 0 0 1011.2 108.0
21/01:49pm 11.2 3.7 60 0 0 1011.2 108.0
21/01:19pm 11.2 3.5 59 0 0 1011.2 108.0
21/12:49pm 10.8 3.3 60 0 0 1011.6 108.0
21/12:19pm 10.8 3.1 59 0 0 1011.4 108.0
21/11:49am 11.0 2.8 57 0 0 1011.3 108.0
21/11:19am 11.0 2.3 55 0 0 1011.5 108.0
21/10:49am 9.9 2.0 58 0 0 1011.8 108.0
21/10:19am 8.5 1.9 63 0 0 1012.6 108.0
21/09:49am 7.6 1.7 66 0 0 1013.1 108.0
21/09:19am 6.9 1.6 69 0 0 1013.6 108.0
21/09:01am 6.7 1.4 69 0 0 1013.1 108.0
21/08:34am 0.0 -2.1 0 8 0 0.0 3689.4
21/08:34am 0.0 -2.1 0 8 0 0.0 3689.4
21/08:34am 0.0 -2.1 0 8 0 0.0 3689.4
21/08:34am 0.0 -2.1 0 8 0 0.0 3689.4
21/08:34am 0.0 -2.1 0 8 0 0.0 3689.4
21/08:34am 0.0 -2.1 0 8 0 0.0 3689.4
21/05:38am 0.0 -2.1 0 0 0 0.0 0.0
21/05:38am 0.0 -2.1 0 0 0 0.0 0.0
21/05:38am 0.0 -2.1 0 0 0 0.0 0.0
21/05:38am 0.0 -2.1 0 0 0 0.0 0.0
21/05:38am 0.0 -2.1 0 0 0 0.0 0.0
21/05:38am 0.0 -2.1 0 0 0 0.0 0.0
21/05:38am 0.0 -2.1 0 0 0 0.0 0.0
21/05:38am 0.0 -2.1 0 0 0 0.0 0.0
21/05:38am 0.0 -2.1 0 0 0 0.0 0.0
21/05:38am 0.0 -2.1 0 0 0 0.0 0.0
21/05:38am 0.0 -2.1 0 0 0 0.0 0.0
21/05:38am 0.0 -2.1 0 0 0 0.0 0.0
21/05:38am 0.0 -2.1 0 0 0 0.0 0.0
21/05:38am 0.0 -2.1 0 0 0 0.0 0.0
21/05:38am 0.0 -2.1 0 0 0 0.0 0.0
20/09:50pm 5.9 -1.7 58 0 0 1028.0 0.0

OBSERVATIONS  24 - 48  HOURS

00-24 HOURS 24-48 HOURS 48-72 HOURS 72-96 HOURS 96-120 HOURS Navigation Menu

Date/Time
EST
temperature
°C
Dew Point
°C
Humidity
%
Wind Speed
km/h
Wind Gust
km/h
Wind
Direction
Barometer
mb
Rain Today
mm
21/05:38am 0.0 -2.1 0 0 0 0.0 0.0
20/09:50pm 5.9 -1.7 58 0 0 1028.0 0.0
20/09:20pm 5.6 -1.3 61 0 0 1027.7 0.0
20/08:50pm 5.6 -2.0 58 0 0 1027.3 0.0
20/08:20pm 5.1 -1.4 63 0 0 1026.6 0.0
20/07:50pm 4.7 -2.0 62 0 0 1026.2 0.0
20/07:20pm 4.5 -1.5 65 0 0 1025.9 0.0
20/06:50pm 5.1 -1.8 61 0 0 1025.4 0.0
20/06:20pm 4.7 -1.7 63 0 0 1024.7 0.0
20/05:50pm 4.1 -0.3 73 0 0 1024.1 0.0
20/05:20pm 5.7 -1.9 58 0 0 1023.3 0.0
20/04:50pm 5.5 -1.9 59 0 0 1022.6 0.0
20/04:20pm 6.6 -3.6 48 0 0 1021.6 0.0
20/03:50pm 7.8 -4.0 43 0 0 1020.6 0.0
20/03:20pm 7.9 -2.2 49 0 0 1019.9 108.0
20/02:50pm 7.1 -2.1 52 0 0 1018.8 108.0
20/02:20pm 7.8 -0.7 55 0 0 1017.9 108.0
20/01:50pm 6.9 -0.1 61 0 0 1017.3 108.0
20/01:20pm 7.9 -1.3 52 0 0 1016.8 108.0
20/12:50pm 8.1 -1.2 52 0 0 1016.3 108.0
20/12:20pm 7.0 -0.7 58 0 0 1016.4 108.0
20/11:50am 7.3 -1.4 54 0 0 1015.5 108.0
20/11:20am 8.2 2.0 65 0 0 1013.7 108.0
20/10:50am 8.3 2.7 68 0 0 1013.4 108.0
20/10:20am 8.9 3.9 71 0 0 1013.3 108.0
20/09:50am 10.2 5.8 74 0 0 1012.3 108.0
20/09:20am 10.4 4.8 68 0 0 1012.6 108.0
20/09:10am 10.5 4.4 66 0 0 1012.7 108.0
20/08:28am 7.6 4.4 80 0 0 1059.3 108.0
20/08:28am 7.6 4.4 80 0 0 1059.3 108.0
20/08:28am 7.6 4.4 80 0 0 1059.3 108.0
20/08:28am 7.6 4.4 80 0 0 1059.3 108.0
20/08:28am 7.6 4.4 80 0 0 1059.3 108.0
20/08:28am 7.6 4.4 80 0 0 1059.3 108.0
20/05:32am 0.0 2.0 0 0 0 0.0 108.0
20/05:32am 0.0 2.0 0 0 0 0.0 108.0
20/05:32am 0.0 2.0 0 0 0 0.0 108.0
20/05:32am 0.0 2.0 0 0 0 0.0 108.0
20/05:32am 0.0 2.0 0 0 0 0.0 108.0
20/05:32am 0.0 2.0 0 0 0 0.0 108.0
20/05:32am 0.0 2.0 0 0 0 0.0 108.0
20/05:32am 0.0 2.0 0 0 0 0.0 108.0
20/05:32am 0.0 2.0 0 0 0 0.0 108.0
20/05:32am 0.0 2.0 0 0 0 0.0 108.0
20/05:32am 0.0 2.0 0 0 0 0.0 108.0
20/05:32am 0.0 2.0 0 0 0 0.0 108.0
20/05:32am 0.0 2.0 0 0 0 0.0 108.0
20/05:32am 0.0 2.0 0 0 0 0.0 108.0
19/10:20pm 9.9 2.0 58 0 0 1002.9 108.0
19/09:50pm 9.0 1.9 61 0 0 1003.0 108.0

OBSERVATIONS  48 - 72  HOURS

00-24 HOURS 24-48 HOURS 48-72 HOURS 72-96 HOURS 96-120 HOURS Navigation Menu

Date/Time
EST
temperature
°C
Dew Point
°C
Humidity
%
Wind Speed
km/h
Wind Gust
km/h
Wind
Direction
Barometer
mb
Rain Today
mm
19/10:20pm 9.9 2.0 58 0 0 1002.9 108.0
19/09:50pm 9.0 1.9 61 0 0 1003.0 108.0
19/09:20pm 9.1 1.5 59 0 0 1003.5 108.0
19/08:50pm 8.3 1.7 63 0 0 1003.5 108.0
19/08:20pm 7.8 1.6 65 0 0 1004.2 108.0
19/07:50pm 7.8 1.8 66 0 0 1004.6 108.0
19/07:20pm 7.8 2.1 67 0 0 1005.0 108.0
19/06:50pm 7.8 1.8 66 0 0 1005.2 108.0
19/06:20pm 7.6 1.7 66 0 0 1005.6 108.0
19/05:50pm 7.3 1.8 68 0 0 1005.9 108.0
19/05:20pm 6.9 1.8 70 0 0 1006.5 108.0
19/04:50pm 6.6 2.3 74 0 0 1006.9 108.0
19/04:20pm 6.4 3.0 79 0 0 1007.6 108.0
19/03:50pm 6.3 2.9 79 0 0 1008.2 108.0
19/03:20pm 6.3 1.6 72 0 0 1008.9 108.0
19/02:50pm 6.5 1.0 68 0 0 1009.6 108.0
19/02:20pm 6.4 0.7 67 0 0 1010.3 108.0
19/01:50pm 6.7 0.2 63 0 0 1010.9 108.0
19/01:20pm 6.8 -0.2 61 0 0 1011.8 108.0
19/12:50pm 6.7 -0.5 60 0 0 1012.3 108.0
19/12:20pm 6.5 -0.5 61 0 0 1012.8 108.0
19/11:50am 6.8 -0.4 60 0 0 1013.3 108.0
19/11:20am 7.2 -0.5 58 0 0 1013.1 108.0
19/10:50am 7.2 0.0 60 0 0 1013.4 108.0
19/10:20am 7.3 -0.2 59 0 0 1013.6 108.0
19/09:50am 6.9 -0.6 59 0 0 1013.4 108.0
19/09:20am 6.7 -0.7 59 0 0 1013.7 108.0
19/09:10am 6.6 -1.1 58 0 0 1013.4 108.0
19/08:27am 0.0 -2.2 0 8 0 0.0 108.0
19/08:27am 0.0 -2.2 0 8 0 0.0 108.0
19/08:27am 0.0 -2.2 0 8 0 0.0 108.0
19/08:27am 0.0 -2.2 0 8 0 0.0 108.0
19/08:27am 0.0 -2.2 0 8 0 0.0 108.0
19/08:27am 0.0 -2.2 0 8 0 0.0 108.0
19/05:31am 0.0 -2.2 0 0 0 0.0 108.0
19/05:31am 0.0 -2.2 0 0 0 0.0 108.0
19/05:31am 0.0 -2.2 0 0 0 0.0 108.0
19/05:31am 0.0 -2.2 0 0 0 0.0 108.0
19/05:31am 0.0 -2.2 0 0 0 0.0 108.0
19/05:31am 0.0 -2.2 0 0 0 0.0 108.0
19/05:31am 0.0 -2.2 0 0 0 0.0 108.0
19/05:31am 0.0 -2.2 0 0 0 0.0 108.0
19/05:31am 0.0 -2.2 0 0 0 0.0 108.0
19/05:31am 0.0 -2.2 0 0 0 0.0 108.0
19/05:31am 0.0 -2.2 0 0 0 0.0 108.0
19/05:31am 0.0 -2.2 0 0 0 0.0 108.0
19/05:31am 0.0 -2.2 0 0 0 0.0 108.0
19/05:31am 0.0 -2.2 0 0 0 0.0 108.0
18/10:20pm 5.2 -2.2 59 0 0 1011.6 108.0
18/09:50pm 5.1 -1.6 62 0 0 1011.4 108.0

OBSERVATIONS  72 - 96  HOURS

00-24 HOURS 24-48 HOURS 48-72 HOURS 72-96 HOURS 96-120 HOURS Navigation Menu

Date/Time
EST
temperature
°C
Dew Point
°C
Humidity
%
Wind Speed
km/h
Wind Gust
km/h
Wind
Direction
Barometer
mb
Rain Today
mm
18/10:20pm 5.2 -2.2 59 0 0 1011.6 108.0
18/09:50pm 5.1 -1.6 62 0 0 1011.4 108.0
18/09:20pm 5.1 -1.6 62 0 0 1011.3 108.0
18/08:50pm 5.2 -1.3 63 0 0 1011.4 108.0
18/08:20pm 5.3 -1.4 62 0 0 1010.8 108.0
18/07:50pm 5.5 -0.3 66 0 0 1010.9 108.0
18/07:20pm 5.7 -0.8 63 0 0 1010.7 108.0
18/06:50pm 5.9 -1.5 59 0 0 1010.6 108.0
18/06:20pm 6.0 -0.9 61 0 0 1009.8 108.0
18/05:50pm 6.2 0.3 66 0 0 1009.2 108.0
18/05:20pm 6.0 1.5 73 0 0 1009.5 108.0
18/04:50pm 5.8 1.3 73 0 0 1009.6 108.0
18/04:20pm 5.8 2.3 78 0 0 1009.6 108.0
18/03:50pm 9.2 0.9 56 0 0 1009.3 108.0
18/03:20pm 9.1 2.0 61 0 0 1009.6 108.0
18/02:50pm 8.6 3.0 68 0 0 1009.9 108.0
18/02:20pm 9.1 1.3 58 0 0 1010.4 108.0
18/01:50pm 11.2 -0.3 45 0 0 1010.9 108.0
18/01:20pm 9.9 0.2 51 0 0 1011.5 108.0
18/12:50pm 9.5 0.7 54 0 0 1011.9 108.0
18/12:20pm 9.6 0.5 53 0 0 1012.5 108.0
18/11:50am 9.5 -0.7 49 0 0 1012.7 108.0
18/11:23am 0.0 -0.4 0 8 0 0.0 108.0
18/11:23am 0.0 -0.4 0 8 0 0.0 108.0
18/11:23am 0.0 -0.4 0 8 0 0.0 108.0
18/11:23am 0.0 -0.4 0 8 0 0.0 108.0
18/11:23am 0.0 -0.4 0 8 0 0.0 108.0
18/11:23am 0.0 -0.4 0 8 0 0.0 108.0
18/08:27am 0.0 -0.4 0 0 0 0.0 108.0
18/08:27am 0.0 -0.4 0 0 0 0.0 108.0
18/08:27am 0.0 -0.4 0 0 0 0.0 108.0
18/08:27am 0.0 -0.4 0 0 0 0.0 108.0
18/08:27am 0.0 -0.4 0 0 0 0.0 108.0
18/08:27am 0.0 -0.4 0 0 0 0.0 108.0
18/08:27am 0.0 -0.4 0 0 0 0.0 108.0
18/08:27am 0.0 -0.4 0 0 0 0.0 108.0
18/08:27am 0.0 -0.4 0 0 0 0.0 108.0
18/08:27am 0.0 -0.4 0 0 0 0.0 108.0
18/08:27am 0.0 -0.4 0 0 0 0.0 108.0
18/08:27am 0.0 -0.4 0 0 0 0.0 108.0
18/08:27am 0.0 -0.4 0 0 0 0.0 108.0
18/08:27am 0.0 -0.4 0 0 0 0.0 108.0
18/08:27am 0.0 -0.4 0 0 0 0.0 108.0
18/08:27am 0.0 -0.4 0 0 0 0.0 108.0
18/08:27am 0.0 -0.4 0 0 0 0.0 108.0
18/08:27am 0.0 -0.4 0 0 0 0.0 108.0
18/08:27am 0.0 -0.4 0 0 0 0.0 108.0
18/08:27am 0.0 -0.4 0 0 0 0.0 108.0
18/08:27am 0.0 -0.4 0 0 0 0.0 108.0
18/08:27am 0.0 -0.4 0 0 0 0.0 108.0

OBSERVATIONS  96 - 120  HOURS

00-24 HOURS 24-48 HOURS 48-72 HOURS 72-96 HOURS 96-120 HOURS Navigation Menu

Date/Time
EST
temperature
°C
Dew Point
°C
Humidity
%
Wind Speed
km/h
Wind Gust
km/h
Wind
Direction
Barometer
mb
Rain Today
mm
18/08:27am 0.0 -0.4 0 0 0 0.0 108.0
18/08:27am 0.0 -0.4 0 0 0 0.0 108.0
18/08:27am 0.0 -0.4 0 0 0 0.0 108.0
18/08:27am 0.0 -0.4 0 0 0 0.0 108.0
18/08:27am 0.0 -0.4 0 0 0 0.0 108.0
18/08:27am 0.0 -0.4 0 0 0 0.0 108.0
18/08:27am 0.0 -0.4 0 0 0 0.0 108.0
18/08:27am 0.0 -0.4 0 0 0 0.0 108.0
18/08:27am 0.0 -0.4 0 0 0 0.0 108.0
17/05:50pm 6.8 -0.4 60 0 0 1020.5 108.0
17/05:20pm 6.9 0.8 65 0 0 1020.2 108.0
17/04:50pm 9.0 0.4 55 0 0 1019.5 108.0
17/04:20pm 9.3 0.2 53 0 0 1019.1 108.0
17/03:50pm 9.5 -0.1 51 0 0 1018.8 108.0
17/03:20pm 9.5 0.9 55 0 0 1018.0 108.0
17/02:50pm 9.6 0.8 54 0 0 1017.8 108.0
17/02:20pm 9.6 0.8 54 0 0 1017.5 108.0
17/01:50pm 9.7 1.6 57 0 0 1017.3 108.0
17/01:20pm 9.7 1.6 57 0 0 1016.3 108.0
17/12:50pm 9.5 1.4 57 0 0 1016.3 108.0
17/12:20pm 9.7 1.3 56 0 0 1015.9 108.0
17/11:50am 9.3 1.0 56 0 0 1015.3 108.0
17/11:20am 8.7 1.1 59 0 0 1015.0 108.0
17/10:50am 8.0 1.2 62 0 0 1014.5 108.0
17/10:20am 7.5 0.9 63 0 0 1014.3 108.0
17/10:00am 7.1 0.8 64 0 0 1013.7 108.0
17/09:30am 0.0 -1.1 0 8 0 0.0 108.0
17/09:30am 0.0 -1.1 0 8 0 0.0 108.0
17/09:30am 0.0 -1.1 0 8 0 0.0 108.0
17/09:30am 0.0 -1.1 0 8 0 0.0 108.0
17/09:30am 0.0 -1.1 0 8 0 0.0 108.0
17/09:30am 0.0 -1.1 0 8 0 0.0 108.0
17/06:34am 0.0 -1.1 0 0 0 0.0 108.0
17/06:34am 0.0 -1.1 0 0 0 0.0 108.0
17/06:34am 0.0 -1.1 0 0 0 0.0 108.0
17/06:34am 0.0 -1.1 0 0 0 0.0 108.0
17/06:34am 0.0 -1.1 0 0 0 0.0 108.0
17/06:34am 0.0 -1.1 0 0 0 0.0 108.0
17/06:34am 0.0 -1.1 0 0 0 0.0 108.0
17/06:34am 0.0 -1.1 0 0 0 0.0 108.0
17/06:34am 0.0 -1.1 0 0 0 0.0 108.0
17/06:34am 0.0 -1.1 0 0 0 0.0 108.0
17/06:34am 0.0 -1.1 0 0 0 0.0 108.0
17/06:34am 0.0 -1.1 0 0 0 0.0 108.0
17/06:34am 0.0 -1.1 0 0 0 0.0 108.0
17/06:34am 0.0 -1.1 0 0 0 0.0 108.0
17/06:34am 0.0 -1.1 0 0 0 0.0 108.0
17/06:34am 0.0 -1.1 0 0 0 0.0 108.0
17/06:34am 0.0 -1.1 0 0 0 0.0 108.0
16/09:50pm 6.2 -0.8 61 0 0 1020.3 108.0

00-24 HOURS 24-48 HOURS 48-72 HOURS 72-96 HOURS 96-120 HOURS Navigation Menu


Page updated 21/02/2020 22:19:37
powered by Cumulus v1.9.4 (1099)